createdAt,value
2018-08-20T00:01:39.620Z,10.23
2018-08-20T00:04:09.345Z,10.13
2018-08-20T00:06:48.997Z,10.50
2018-08-20T00:09:17.183Z,10.60
2018-08-20T00:11:45.236Z,9.20
2018-08-20T00:14:12.966Z,10.33
2018-08-20T00:16:40.692Z,9.53
2018-08-20T00:19:12.718Z,10.33
2018-08-20T00:21:40.663Z,9.90
2018-08-20T00:24:08.397Z,10.30
2018-08-20T00:26:36.197Z,10.73
2018-08-20T00:29:05.414Z,10.90
2018-08-20T00:31:33.181Z,10.43
2018-08-20T00:34:00.838Z,10.10
2018-08-20T00:36:28.523Z,10.47
2018-08-20T00:38:56.183Z,10.07
2018-08-20T00:41:23.829Z,10.70
2018-08-20T00:43:51.556Z,10.27
2018-08-20T00:46:19.214Z,10.73
2018-08-20T00:48:46.915Z,12.77
2018-08-20T00:51:14.595Z,11.80
2018-08-20T00:53:42.274Z,13.53
2018-08-20T00:56:10.854Z,14.80
2018-08-20T00:58:38.547Z,16.10
2018-08-20T01:01:06.758Z,14.47
2018-08-20T01:03:34.435Z,15.00
2018-08-20T01:06:02.179Z,15.00
2018-08-20T01:08:29.857Z,14.70
2018-08-20T01:10:57.589Z,16.70
2018-08-20T01:13:25.263Z,17.23
2018-08-20T01:15:52.959Z,14.07
2018-08-20T01:18:20.642Z,12.87
2018-08-20T01:20:48.334Z,12.57
2018-08-20T01:23:16.041Z,12.00
2018-08-20T01:25:43.741Z,13.93
2018-08-20T01:28:11.443Z,13.80
2018-08-20T01:30:39.119Z,13.27
2018-08-20T01:33:12.146Z,13.23
2018-08-20T01:35:39.826Z,14.30
2018-08-20T01:38:07.485Z,16.73
2018-08-20T01:40:35.186Z,16.03
2018-08-20T01:43:02.894Z,16.90
2018-08-20T01:45:30.608Z,17.80
2018-08-20T01:47:58.281Z,16.67
2018-08-20T01:50:25.961Z,15.43
2018-08-20T01:52:53.686Z,15.47
2018-08-20T01:55:21.387Z,14.33
2018-08-20T01:57:49.058Z,14.23
2018-08-20T02:00:16.731Z,14.47
2018-08-20T02:02:48.891Z,14.77
2018-08-20T02:05:16.626Z,14.33
2018-08-20T02:07:44.406Z,14.60
2018-08-20T02:10:12.057Z,15.50
2018-08-20T02:12:40.742Z,15.47
2018-08-20T02:15:08.434Z,15.23
2018-08-20T02:17:36.191Z,14.87
2018-08-20T02:20:04.112Z,14.87
2018-08-20T02:22:31.978Z,15.33
2018-08-20T02:24:59.763Z,14.37
2018-08-20T02:27:27.501Z,14.87
2018-08-20T02:29:55.161Z,16.03
2018-08-20T02:32:22.883Z,15.20
2018-08-20T02:34:50.533Z,14.70
2018-08-20T02:37:18.226Z,14.03
2018-08-20T02:39:45.914Z,14.57
2018-08-20T02:42:13.707Z,13.70
2018-08-20T02:44:41.395Z,14.97
2018-08-20T02:47:09.072Z,14.13
2018-08-20T02:49:36.839Z,14.50
2018-08-20T02:52:04.737Z,14.20
2018-08-20T02:54:32.403Z,14.43
2018-08-20T02:57:00.098Z,14.97
2018-08-20T02:59:27.799Z,15.13
2018-08-20T03:01:55.535Z,13.87
2018-08-20T03:04:23.204Z,14.20
2018-08-20T03:06:50.878Z,13.47
2018-08-20T03:09:18.574Z,13.47
2018-08-20T03:11:46.298Z,13.07
2018-08-20T03:14:14.107Z,13.80
2018-08-20T03:16:41.769Z,13.37
2018-08-20T03:19:10.192Z,14.13
2018-08-20T03:21:37.878Z,14.50
2018-08-20T03:24:05.879Z,13.70
2018-08-20T03:26:33.677Z,14.80
2018-08-20T03:29:01.402Z,14.83
2018-08-20T03:31:29.469Z,15.17
2018-08-20T03:33:57.179Z,14.70
2018-08-20T03:36:24.950Z,15.40
2018-08-20T03:38:52.611Z,16.13
2018-08-20T03:41:20.345Z,15.33
2018-08-20T03:43:48.025Z,16.60
2018-08-20T03:46:15.749Z,14.47
2018-08-20T03:48:43.409Z,13.93
2018-08-20T03:51:11.095Z,13.70
2018-08-20T03:53:38.823Z,13.60
2018-08-20T03:56:06.585Z,12.60
2018-08-20T03:58:34.277Z,13.70
2018-08-20T04:01:02.510Z,13.40
2018-08-20T04:03:30.399Z,12.60
2018-08-20T04:05:58.102Z,13.90
2018-08-20T04:08:25.772Z,12.73
2018-08-20T04:10:53.417Z,13.03
2018-08-20T04:13:21.066Z,11.87
2018-08-20T04:15:48.761Z,12.53
2018-08-20T04:18:16.400Z,11.73
2018-08-20T04:20:44.106Z,11.50
2018-08-20T04:23:11.829Z,10.37
2018-08-20T04:25:39.542Z,9.87
2018-08-20T04:28:07.218Z,9.80
2018-08-20T04:30:34.971Z,10.87
2018-08-20T04:33:02.591Z,10.10
2018-08-20T04:35:30.273Z,10.23
2018-08-20T04:37:57.938Z,10.13
2018-08-20T04:40:25.666Z,10.27
2018-08-20T04:42:53.326Z,10.10
2018-08-20T04:45:21.059Z,9.97
2018-08-20T04:47:48.758Z,9.33
2018-08-20T04:50:16.654Z,10.00
2018-08-20T04:52:44.169Z,9.43
2018-08-20T04:55:11.874Z,9.80
2018-08-20T04:57:39.565Z,10.40
2018-08-20T05:00:09.434Z,9.93
2018-08-20T05:02:37.138Z,9.73
2018-08-20T05:05:04.882Z,10.50
2018-08-20T05:07:32.780Z,9.13
2018-08-20T05:10:00.676Z,9.33
2018-08-20T05:12:28.357Z,8.90
2018-08-20T05:14:56.018Z,8.80
2018-08-20T05:17:23.779Z,8.93
2018-08-20T05:19:51.487Z,9.83
2018-08-20T05:22:19.150Z,9.30
2018-08-20T05:24:46.822Z,10.53
2018-08-20T05:27:14.583Z,12.30
2018-08-20T05:29:42.319Z,12.77
2018-08-20T05:32:09.991Z,13.93
2018-08-20T05:34:37.649Z,13.47
2018-08-20T05:37:05.425Z,12.23
2018-08-20T05:39:34.521Z,13.56
2018-08-20T05:42:02.368Z,12.50
2018-08-20T05:44:30.024Z,12.97
2018-08-20T05:46:57.715Z,11.27
2018-08-20T05:49:25.388Z,11.40
2018-08-20T05:51:53.122Z,12.03
2018-08-20T05:54:21.022Z,11.53
2018-08-20T05:56:48.701Z,13.13
2018-08-20T05:59:16.423Z,12.93
2018-08-20T06:01:44.143Z,13.57
2018-08-20T06:04:11.853Z,12.23
2018-08-20T06:06:39.629Z,12.77
2018-08-20T06:09:08.709Z,11.50
2018-08-20T06:11:36.378Z,11.87
2018-08-20T06:14:04.535Z,11.37
2018-08-20T06:16:32.402Z,11.67
2018-08-20T06:19:00.141Z,11.60
2018-08-20T06:21:27.810Z,10.87
2018-08-20T06:23:55.584Z,11.60
2018-08-20T06:26:23.306Z,11.73
2018-08-20T06:28:50.998Z,11.07
2018-08-20T06:31:18.713Z,11.30
2018-08-20T06:33:46.397Z,10.50
2018-08-20T06:36:14.152Z,10.90
2018-08-20T06:38:41.856Z,10.97
2018-08-20T06:41:09.557Z,11.87
2018-08-20T06:43:37.273Z,11.47
2018-08-20T06:46:05.040Z,10.77
2018-08-20T06:48:33.749Z,11.23
2018-08-20T06:51:01.433Z,11.53
2018-08-20T06:53:29.101Z,11.13
2018-08-20T06:55:56.798Z,11.90
2018-08-20T06:58:24.520Z,11.57
2018-08-20T07:00:52.313Z,11.60
2018-08-20T07:03:20.369Z,11.47
2018-08-20T07:05:48.151Z,11.57
2018-08-20T07:08:15.916Z,11.60
2018-08-20T07:10:46.132Z,11.67
2018-08-20T07:13:25.573Z,11.23
2018-08-20T07:15:53.521Z,12.20
2018-08-20T07:18:21.258Z,10.87
2018-08-20T07:20:54.378Z,11.60
2018-08-20T07:23:22.067Z,10.80
2018-08-20T07:25:49.850Z,11.07
2018-08-20T07:28:17.615Z,11.37
2018-08-20T07:30:45.590Z,10.60
2018-08-20T07:33:13.257Z,10.33
2018-08-20T07:35:40.970Z,10.60
2018-08-20T07:38:08.989Z,10.37
2018-08-20T07:40:36.761Z,9.37
2018-08-20T07:43:04.579Z,9.90
2018-08-20T07:45:32.256Z,9.30
2018-08-20T07:48:00.072Z,9.30
2018-08-20T07:50:27.822Z,9.40
2018-08-20T07:52:55.477Z,9.70
2018-08-20T07:55:23.177Z,10.10
2018-08-20T07:57:50.861Z,9.47
2018-08-20T08:00:18.650Z,9.10
2018-08-20T08:02:46.370Z,8.93
2018-08-20T08:05:14.154Z,9.17
2018-08-20T08:07:41.961Z,8.30
2018-08-20T08:10:12.889Z,9.70
2018-08-20T08:12:40.620Z,9.87
2018-08-20T08:15:10.173Z,9.23
2018-08-20T08:17:37.930Z,8.70
2018-08-20T08:20:07.167Z,9.60
2018-08-20T08:22:34.978Z,9.90
2018-08-20T08:25:02.714Z,8.70
2018-08-20T08:27:30.526Z,8.10
2018-08-20T08:29:58.279Z,8.57
2018-08-20T08:32:26.046Z,8.97
2018-08-20T08:34:53.717Z,9.50
2018-08-20T08:37:21.400Z,8.47
2018-08-20T08:39:49.142Z,7.60
2018-08-20T08:42:16.845Z,7.93
2018-08-20T08:44:44.586Z,8.53
2018-08-20T08:47:12.347Z,7.60
2018-08-20T08:49:40.062Z,8.10
2018-08-20T08:52:07.808Z,7.70
2018-08-20T08:54:35.816Z,6.57
2018-08-20T08:57:03.568Z,6.07
2018-08-20T08:59:31.314Z,5.83
2018-08-20T09:01:59.096Z,6.20
2018-08-20T09:04:26.835Z,6.03
2018-08-20T09:06:54.514Z,6.37
2018-08-20T09:09:22.237Z,6.83
2018-08-20T09:11:49.921Z,5.60
2018-08-20T09:14:17.613Z,5.80
2018-08-20T09:16:45.343Z,6.00
2018-08-20T09:19:13.065Z,5.97
2018-08-20T09:21:40.797Z,6.40
2018-08-20T09:24:08.633Z,4.87
2018-08-20T09:26:36.653Z,4.70
2018-08-20T09:29:04.460Z,4.97
2018-08-20T09:31:32.261Z,4.67
2018-08-20T09:33:59.981Z,4.90
2018-08-20T09:36:27.685Z,4.83
2018-08-20T09:38:55.446Z,4.07
2018-08-20T09:41:23.178Z,4.77
2018-08-20T09:43:50.934Z,4.60
2018-08-20T09:46:18.583Z,4.57
2018-08-20T09:48:46.290Z,4.20
2018-08-20T09:51:14.018Z,3.93
2018-08-20T09:53:41.888Z,4.13
2018-08-20T09:56:09.740Z,4.03
2018-08-20T09:58:37.546Z,3.67
2018-08-20T10:01:05.336Z,3.93
2018-08-20T10:03:33.037Z,4.30
2018-08-20T10:06:00.766Z,3.80
2018-08-20T10:08:28.533Z,4.20
2018-08-20T10:10:56.264Z,3.93
2018-08-20T10:13:24.014Z,4.23
2018-08-20T10:15:51.782Z,4.10
2018-08-20T10:18:19.577Z,3.90
2018-08-20T10:20:47.393Z,4.10
2018-08-20T10:23:15.160Z,4.10
2018-08-20T10:25:42.873Z,3.80
2018-08-20T10:28:10.615Z,4.07
2018-08-20T10:30:38.293Z,4.07
2018-08-20T10:33:06.983Z,4.87
2018-08-20T10:35:34.700Z,4.43
2018-08-20T10:38:02.512Z,4.37
2018-08-20T10:40:30.185Z,4.10
2018-08-20T10:42:57.921Z,4.33
2018-08-20T10:45:31.556Z,4.40
2018-08-20T10:47:59.352Z,3.70
2018-08-20T10:50:27.092Z,4.20
2018-08-20T10:52:54.815Z,3.97
2018-08-20T10:55:22.605Z,4.07
2018-08-20T10:57:50.417Z,3.73
2018-08-20T11:00:18.205Z,3.63
2018-08-20T11:02:46.308Z,3.93
2018-08-20T11:05:16.736Z,4.20
2018-08-20T11:07:44.548Z,4.33
2018-08-20T11:10:12.414Z,4.03
2018-08-20T11:12:40.186Z,3.83
2018-08-20T11:15:09.531Z,3.97
2018-08-20T11:17:37.737Z,3.80
2018-08-20T11:20:08.457Z,3.70
2018-08-20T11:22:36.556Z,3.80
2018-08-20T11:25:04.905Z,3.70
2018-08-20T11:27:33.117Z,4.43
2018-08-20T11:30:00.928Z,4.70
2018-08-20T11:32:28.661Z,4.17
2018-08-20T11:34:56.737Z,4.30
2018-08-20T11:37:24.469Z,3.90
2018-08-20T11:39:52.157Z,4.70
2018-08-20T11:42:20.732Z,4.63
2018-08-20T11:44:48.441Z,4.30
2018-08-20T11:47:16.164Z,4.47
2018-08-20T11:49:43.871Z,4.80
2018-08-20T11:52:11.641Z,4.43
2018-08-20T11:54:39.390Z,4.80
2018-08-20T11:57:07.120Z,4.37
2018-08-20T11:59:34.854Z,4.00
2018-08-20T12:02:02.721Z,4.00
2018-08-20T12:04:30.349Z,4.07
2018-08-20T12:06:58.095Z,4.17
2018-08-20T12:09:25.782Z,4.27
2018-08-20T12:11:53.546Z,3.97
2018-08-20T12:14:21.249Z,4.27
2018-08-20T12:16:48.965Z,4.00
2018-08-20T12:19:16.675Z,4.00
2018-08-20T12:21:44.357Z,4.30
2018-08-20T12:24:12.066Z,4.40
2018-08-20T12:26:39.750Z,4.27
2018-08-20T12:29:07.486Z,4.00
2018-08-20T12:31:35.165Z,3.60
2018-08-20T12:34:02.848Z,3.90
2018-08-20T12:36:30.554Z,3.90
2018-08-20T12:38:58.256Z,3.93
2018-08-20T12:41:25.934Z,3.77
2018-08-20T12:43:53.687Z,3.70
2018-08-20T12:46:21.408Z,4.20
2018-08-20T12:48:50.759Z,3.90
2018-08-20T12:51:19.090Z,3.80
2018-08-20T12:53:46.744Z,3.60
2018-08-20T12:56:14.479Z,4.93
2018-08-20T12:58:52.315Z,3.67
2018-08-20T13:01:20.277Z,4.20
2018-08-20T13:03:48.649Z,3.90
2018-08-20T13:06:16.476Z,3.20
2018-08-20T13:08:45.069Z,3.50
2018-08-20T13:11:12.806Z,3.77
2018-08-20T13:13:40.687Z,3.93
2018-08-20T13:16:08.727Z,3.73
2018-08-20T13:18:36.348Z,3.33
2018-08-20T13:21:04.142Z,3.50
2018-08-20T13:23:31.846Z,3.83
2018-08-20T13:25:59.657Z,3.67
2018-08-20T13:28:27.421Z,3.50
2018-08-20T13:30:55.153Z,3.42
2018-08-20T13:33:22.896Z,4.00
2018-08-20T13:35:50.644Z,3.53
2018-08-20T13:38:18.484Z,4.00
2018-08-20T13:40:46.213Z,3.63
2018-08-20T13:43:13.965Z,3.80
2018-08-20T13:45:41.716Z,3.87
2018-08-20T13:48:09.909Z,4.07
2018-08-20T13:50:37.643Z,3.73
2018-08-20T13:53:05.623Z,3.67
2018-08-20T13:55:33.305Z,3.80
2018-08-20T13:58:01.072Z,3.90
2018-08-20T14:00:28.752Z,3.60
2018-08-20T14:02:56.480Z,3.80
2018-08-20T14:05:24.222Z,3.90
2018-08-20T14:07:51.949Z,3.63
2018-08-20T14:10:19.648Z,3.13
2018-08-20T14:12:47.347Z,3.60
2018-08-20T14:15:15.246Z,3.83
2018-08-20T14:17:43.520Z,3.63
2018-08-20T14:20:13.711Z,3.80
2018-08-20T14:22:42.544Z,3.90
2018-08-20T14:25:10.437Z,3.63
2018-08-20T14:27:38.110Z,3.83
2018-08-20T14:30:10.630Z,3.73
2018-08-20T14:32:38.338Z,4.00
2018-08-20T14:35:06.672Z,4.20
2018-08-20T14:37:34.370Z,4.10
2018-08-20T14:40:02.147Z,3.90
2018-08-20T14:42:30.169Z,4.27
2018-08-20T14:44:57.983Z,3.63
2018-08-20T14:47:25.948Z,3.47
2018-08-20T14:49:53.698Z,3.60
2018-08-20T14:52:21.489Z,3.73
2018-08-20T14:54:49.162Z,3.80
2018-08-20T14:57:16.976Z,3.70
2018-08-20T14:59:44.690Z,4.03
2018-08-20T15:02:12.409Z,4.07
2018-08-20T15:04:40.121Z,3.70
2018-08-20T15:07:09.379Z,3.67
2018-08-20T15:09:37.281Z,3.73
2018-08-20T15:12:05.146Z,3.80
2018-08-20T15:14:32.896Z,3.60
2018-08-20T15:17:00.672Z,4.00
2018-08-20T15:19:28.346Z,3.83
2018-08-20T15:21:56.085Z,3.73
2018-08-20T15:24:23.769Z,3.70
2018-08-20T15:26:51.451Z,3.80
2018-08-20T15:29:19.668Z,4.20
2018-08-20T15:31:47.603Z,3.90
2018-08-20T15:34:15.564Z,3.73
2018-08-20T15:36:43.270Z,3.90
2018-08-20T15:39:11.299Z,3.13
2018-08-20T15:41:39.089Z,3.57
2018-08-20T15:44:08.271Z,3.73
2018-08-20T15:46:35.971Z,4.40
2018-08-20T15:49:04.710Z,3.73
2018-08-20T15:51:32.485Z,4.20
2018-08-20T15:54:00.318Z,4.30
2018-08-20T15:56:28.365Z,3.97
2018-08-20T15:58:56.123Z,4.40
2018-08-20T16:01:23.848Z,5.00
2018-08-20T16:03:51.889Z,4.97
2018-08-20T16:06:19.628Z,5.63
2018-08-20T16:08:47.411Z,5.33
2018-08-20T16:11:15.141Z,4.30
2018-08-20T16:13:42.887Z,4.53
2018-08-20T16:16:10.665Z,5.00
2018-08-20T16:18:38.813Z,5.50
2018-08-20T16:21:06.533Z,5.37
2018-08-20T16:23:34.440Z,6.03
2018-08-20T16:26:02.169Z,5.50
2018-08-20T16:28:29.854Z,6.40
2018-08-20T16:30:57.629Z,6.50
2018-08-20T16:33:25.326Z,6.60
2018-08-20T16:35:53.001Z,6.13
2018-08-20T16:38:20.758Z,6.40
2018-08-20T16:40:48.577Z,5.70
2018-08-20T16:43:16.289Z,6.03
2018-08-20T16:45:43.977Z,5.40
2018-08-20T16:48:11.752Z,5.47
2018-08-20T16:50:40.523Z,5.83
2018-08-20T16:53:08.408Z,5.87
2018-08-20T16:55:36.080Z,6.70
2018-08-20T16:58:03.861Z,7.27
2018-08-20T17:00:31.549Z,5.80
2018-08-20T17:02:59.262Z,8.43
2018-08-20T17:05:33.140Z,7.60
2018-08-20T17:08:01.131Z,7.27
2018-08-20T17:10:29.261Z,7.57
2018-08-20T17:12:57.078Z,7.40
2018-08-20T17:15:24.814Z,7.90
2018-08-20T17:17:52.490Z,7.30
2018-08-20T17:20:20.197Z,8.43
2018-08-20T17:22:47.867Z,7.03
2018-08-20T17:25:15.578Z,7.50
2018-08-20T17:27:49.790Z,8.00
2018-08-20T17:30:17.534Z,7.30
2018-08-20T17:32:45.273Z,6.17
2018-08-20T17:35:12.950Z,7.63
2018-08-20T17:37:40.913Z,7.83
2018-08-20T17:40:09.826Z,8.40
2018-08-20T17:42:37.562Z,8.00
2018-08-20T17:45:06.741Z,7.50
2018-08-20T17:47:38.478Z,6.57
2018-08-20T17:50:10.733Z,6.70
2018-08-20T17:52:40.572Z,6.93
2018-08-20T17:55:08.271Z,7.57
2018-08-20T17:57:35.941Z,7.50
2018-08-20T18:00:43.667Z,6.90
2018-08-20T18:03:18.911Z,7.50
2018-08-20T18:05:51.230Z,6.40
2018-08-20T18:08:18.926Z,6.33
2018-08-20T18:10:46.613Z,6.00
2018-08-20T18:13:26.277Z,6.57
2018-08-20T18:15:54.003Z,6.47
2018-08-20T18:18:21.858Z,6.77
2018-08-20T18:20:49.546Z,6.50
2018-08-20T18:23:17.309Z,7.10
2018-08-20T18:25:44.959Z,6.63
2018-08-20T18:28:12.651Z,7.27
2018-08-20T18:30:40.422Z,6.13
2018-08-20T18:33:08.158Z,6.47
2018-08-20T18:35:36.659Z,6.20
2018-08-20T18:38:04.491Z,7.00
2018-08-20T18:40:32.388Z,6.90
2018-08-20T18:43:00.174Z,5.90
2018-08-20T18:45:27.883Z,5.80
2018-08-20T18:47:55.639Z,5.27
2018-08-20T18:50:23.457Z,6.00
2018-08-20T18:52:51.305Z,5.70
2018-08-20T18:55:19.059Z,5.63
2018-08-20T18:57:46.746Z,5.47
2018-08-20T19:00:15.083Z,6.23
2018-08-20T19:02:48.845Z,6.67
2018-08-20T19:05:17.557Z,6.43
2018-08-20T19:07:45.564Z,6.40
2018-08-20T19:10:20.745Z,6.17
2018-08-20T19:12:48.570Z,6.07
2018-08-20T19:15:27.493Z,5.43
2018-08-20T19:17:55.352Z,6.17
2018-08-20T19:20:23.117Z,6.07
2018-08-20T19:22:50.853Z,5.63
2018-08-20T19:25:18.557Z,5.40
2018-08-20T19:27:46.332Z,6.23
2018-08-20T19:30:19.667Z,5.97
2018-08-20T19:32:47.408Z,5.73
2018-08-20T19:35:15.145Z,5.80
2018-08-20T19:37:43.298Z,6.13
2018-08-20T19:40:11.087Z,5.57
2018-08-20T19:42:38.797Z,5.47
2018-08-20T19:45:08.598Z,5.70
2018-08-20T19:47:36.292Z,6.10
2018-08-20T19:50:05.385Z,5.80
2018-08-20T19:52:33.138Z,5.83
2018-08-20T19:55:06.178Z,6.10
2018-08-20T19:57:34.028Z,5.70
2018-08-20T20:00:02.019Z,5.80
2018-08-20T20:02:29.893Z,6.80
2018-08-20T20:05:03.591Z,6.37
2018-08-20T20:07:31.956Z,5.43
2018-08-20T20:09:59.761Z,5.60
2018-08-20T20:12:27.534Z,5.23
2018-08-20T20:14:57.639Z,5.50
2018-08-20T20:17:25.325Z,5.03
2018-08-20T20:19:53.090Z,5.80
2018-08-20T20:22:20.881Z,4.93
2018-08-20T20:24:48.585Z,5.90
2018-08-20T20:27:16.314Z,5.93
2018-08-20T20:29:43.992Z,5.53
2018-08-20T20:32:11.730Z,5.17
2018-08-20T20:34:39.490Z,5.53
2018-08-20T20:37:07.322Z,4.93
2018-08-20T20:39:35.465Z,5.53
2018-08-20T20:42:03.241Z,5.60
2018-08-20T20:44:30.949Z,5.50
2018-08-20T20:46:58.685Z,5.60
2018-08-20T20:49:26.458Z,5.30
2018-08-20T20:51:54.178Z,4.67
2018-08-20T20:54:21.837Z,6.93
2018-08-20T20:56:49.566Z,5.17
2018-08-20T20:59:17.273Z,5.33
2018-08-20T21:01:44.969Z,5.00
2018-08-20T21:04:12.685Z,6.03
2018-08-20T21:06:41.322Z,5.37
2018-08-20T21:09:10.478Z,5.30
2018-08-20T21:11:38.228Z,5.63
2018-08-20T21:14:06.001Z,5.50
2018-08-20T21:16:33.694Z,5.40
2018-08-20T21:19:04.845Z,5.73
2018-08-20T21:21:33.225Z,5.33
2018-08-20T21:24:01.049Z,5.10
2018-08-20T21:26:28.825Z,5.47
2018-08-20T21:28:56.549Z,5.70
2018-08-20T21:31:25.378Z,5.20
2018-08-20T21:33:55.154Z,5.10
2018-08-20T21:36:22.846Z,4.93
2018-08-20T21:38:50.521Z,5.07
2018-08-20T21:41:27.668Z,5.70
2018-08-20T21:43:55.418Z,5.37
2018-08-20T21:46:23.173Z,4.87
2018-08-20T21:48:50.900Z,4.60
2018-08-20T21:51:26.875Z,4.90
2018-08-20T21:53:54.578Z,4.87
2018-08-20T21:56:22.351Z,5.23
2018-08-20T21:58:50.046Z,5.30
2018-08-20T22:01:18.260Z,4.93
2018-08-20T22:03:46.321Z,5.27
2018-08-20T22:06:14.402Z,5.23
2018-08-20T22:08:42.147Z,5.20
2018-08-20T22:11:10.537Z,5.60
2018-08-20T22:13:38.353Z,5.73
2018-08-20T22:16:20.714Z,5.73
2018-08-20T22:18:56.034Z,5.43
2018-08-20T22:21:23.913Z,5.50
2018-08-20T22:23:52.284Z,5.70
2018-08-20T22:26:20.987Z,6.03
2018-08-20T22:28:50.113Z,5.80
2018-08-20T22:31:17.941Z,5.40
2018-08-20T22:33:55.084Z,5.13
2018-08-20T22:36:23.101Z,5.63
2018-08-20T22:38:59.888Z,5.53
2018-08-20T22:41:28.675Z,5.60
2018-08-20T22:43:56.392Z,5.33
2018-08-20T22:46:24.908Z,5.60
2018-08-20T22:48:55.733Z,5.17
2018-08-20T22:51:24.969Z,5.60
2018-08-20T22:53:53.885Z,5.20
2018-08-20T22:56:26.239Z,5.80
2018-08-20T22:58:57.849Z,5.43
2018-08-20T23:01:25.589Z,6.03
2018-08-20T23:03:53.258Z,5.60
2018-08-20T23:06:20.926Z,5.53
2018-08-20T23:08:48.618Z,5.60
2018-08-20T23:11:27.517Z,5.60
2018-08-20T23:13:55.253Z,5.83
2018-08-20T23:16:23.038Z,5.70
2018-08-20T23:18:50.717Z,5.47
2018-08-20T23:21:18.525Z,6.00
2018-08-20T23:23:46.190Z,6.13
2018-08-20T23:26:14.112Z,6.23
2018-08-20T23:28:41.860Z,7.63
2018-08-20T23:31:09.691Z,7.17
2018-08-20T23:33:38.213Z,7.47
2018-08-20T23:36:05.989Z,7.13
2018-08-20T23:38:33.745Z,7.17
2018-08-20T23:41:01.478Z,7.43
2018-08-20T23:43:29.696Z,7.53
2018-08-20T23:45:57.409Z,7.80
2018-08-20T23:48:25.187Z,7.73
2018-08-20T23:50:58.696Z,7.03
2018-08-20T23:53:27.505Z,7.83
2018-08-20T23:55:55.218Z,7.60
2018-08-20T23:58:22.890Z,7.10
